Terminal Aerodrome Forecast
Issued by NWS

Home | Current Version | Previous Version | Text Only | Print | Product List | Glossary On
Versions: 1 2 3 4 5 6 7 8 9 10 11 12 13 14 15 16 17 18 19 20 21 22 23 24 25 26 27 28 29
000
FTUS44 KHGX 051921 AAA
TAFIAH
TAF AMD
KIAH 051921Z 0519/0624 29004KT 6SM -DZ BR VCSH OVC005
      TEMPO 0519/0521 1SM -DZ BR
     FM060300 30006KT P6SM SCT007 BKN015
     FM060800 24005KT P6SM MIFG FEW015
     FM061500 24007KT P6SM SKC=

USA.gov is the U.S. government's official web portal to all federal, state and local government web resources and services.